sensor_id;sensor_type;location;lat;lon;timestamp;P1;durP1;ratioP1;P2;durP2;ratioP2
16181;SDS011;8197;51.664;7.114;2024-01-15T00:04:49;33.37;;;14.50;;
16181;SDS011;8197;51.664;7.114;2024-01-15T00:09:52;35.87;;;14.90;;
16181;SDS011;8197;51.664;7.114;2024-01-15T00:14:56;36.80;;;15.70;;
16181;SDS011;8197;51.664;7.114;2024-01-15T00:19:59;37.70;;;14.53;;
16181;SDS011;8197;51.664;7.114;2024-01-15T00:25:02;33.37;;;14.10;;
16181;SDS011;8197;51.664;7.114;2024-01-15T00:30:08;39.70;;;14.47;;
16181;SDS011;8197;51.664;7.114;2024-01-15T00:35:11;37.67;;;14.33;;
16181;SDS011;8197;51.664;7.114;2024-01-15T00:40:14;38.07;;;14.43;;
16181;SDS011;8197;51.664;7.114;2024-01-15T00:45:18;36.17;;;14.10;;
16181;SDS011;8197;51.664;7.114;2024-01-15T00:50:22;40.07;;;14.80;;
16181;SDS011;8197;51.664;7.114;2024-01-15T00:55:24;34.70;;;14.00;;
16181;SDS011;8197;51.664;7.114;2024-01-15T01:00:29;34.73;;;13.20;;
16181;SDS011;8197;51.664;7.114;2024-01-15T01:05:32;39.13;;;14.47;;
16181;SDS011;8197;51.664;7.114;2024-01-15T01:10:35;40.50;;;14.63;;
16181;SDS011;8197;51.664;7.114;2024-01-15T01:15:40;30.43;;;12.50;;
16181;SDS011;8197;51.664;7.114;2024-01-15T01:20:43;39.00;;;13.67;;
16181;SDS011;8197;51.664;7.114;2024-01-15T01:25:46;39.40;;;14.90;;
16181;SDS011;8197;51.664;7.114;2024-01-15T01:30:50;35.53;;;13.23;;
16181;SDS011;8197;51.664;7.114;2024-01-15T01:35:53;31.97;;;11.10;;
16181;SDS011;8197;51.664;7.114;2024-01-15T01:40:56;32.63;;;11.87;;
16181;SDS011;8197;51.664;7.114;2024-01-15T01:46:00;28.13;;;10.10;;
16181;SDS011;8197;51.664;7.114;2024-01-15T01:51:04;29.90;;;9.87;;
16181;SDS011;8197;51.664;7.114;2024-01-15T01:56:07;34.40;;;10.50;;
16181;SDS011;8197;51.664;7.114;2024-01-15T02:01:12;34.83;;;9.73;;
16181;SDS011;8197;51.664;7.114;2024-01-15T02:06:16;32.50;;;10.17;;
16181;SDS011;8197;51.664;7.114;2024-01-15T02:11:19;29.30;;;9.13;;
16181;SDS011;8197;51.664;7.114;2024-01-15T02:16:24;26.67;;;7.93;;
16181;SDS011;8197;51.664;7.114;2024-01-15T02:21:27;28.87;;;9.70;;
16181;SDS011;8197;51.664;7.114;2024-01-15T02:26:31;27.80;;;8.70;;
16181;SDS011;8197;51.664;7.114;2024-01-15T02:31:37;29.90;;;9.10;;
16181;SDS011;8197;51.664;7.114;2024-01-15T02:36:40;29.53;;;8.60;;
16181;SDS011;8197;51.664;7.114;2024-01-15T02:41:44;30.43;;;9.10;;
16181;SDS011;8197;51.664;7.114;2024-01-15T02:46:47;24.80;;;8.00;;
16181;SDS011;8197;51.664;7.114;2024-01-15T02:51:50;23.77;;;7.50;;
16181;SDS011;8197;51.664;7.114;2024-01-15T02:56:54;28.93;;;9.13;;
16181;SDS011;8197;51.664;7.114;2024-01-15T03:01:57;27.53;;;7.20;;
16181;SDS011;8197;51.664;7.114;2024-01-15T03:07:00;26.80;;;8.50;;
16181;SDS011;8197;51.664;7.114;2024-01-15T03:12:05;30.73;;;8.80;;
16181;SDS011;8197;51.664;7.114;2024-01-15T03:17:08;29.50;;;8.60;;
16181;SDS011;8197;51.664;7.114;2024-01-15T03:22:12;23.27;;;7.03;;
16181;SDS011;8197;51.664;7.114;2024-01-15T03:27:16;29.63;;;8.20;;
16181;SDS011;8197;51.664;7.114;2024-01-15T03:32:19;24.80;;;7.57;;
16181;SDS011;8197;51.664;7.114;2024-01-15T03:37:22;27.13;;;7.90;;
16181;SDS011;8197;51.664;7.114;2024-01-15T03:42:27;25.57;;;7.80;;
16181;SDS011;8197;51.664;7.114;2024-01-15T03:47:29;29.17;;;8.10;;
16181;SDS011;8197;51.664;7.114;2024-01-15T03:52:32;27.50;;;7.47;;
16181;SDS011;8197;51.664;7.114;2024-01-15T03:57:37;33.17;;;7.80;;
16181;SDS011;8197;51.664;7.114;2024-01-15T04:02:40;24.50;;;7.10;;
16181;SDS011;8197;51.664;7.114;2024-01-15T04:07:43;27.40;;;7.80;;
16181;SDS011;8197;51.664;7.114;2024-01-15T04:12:47;27.20;;;7.50;;
16181;SDS011;8197;51.664;7.114;2024-01-15T04:17:51;25.87;;;6.83;;
16181;SDS011;8197;51.664;7.114;2024-01-15T04:22:54;23.53;;;6.50;;
16181;SDS011;8197;51.664;7.114;2024-01-15T04:27:58;21.90;;;5.50;;
16181;SDS011;8197;51.664;7.114;2024-01-15T04:33:01;21.17;;;5.77;;
16181;SDS011;8197;51.664;7.114;2024-01-15T04:38:04;28.80;;;5.73;;
16181;SDS011;8197;51.664;7.114;2024-01-15T04:43:08;23.80;;;4.87;;
16181;SDS011;8197;51.664;7.114;2024-01-15T04:48:11;18.80;;;3.90;;
16181;SDS011;8197;51.664;7.114;2024-01-15T04:53:14;20.23;;;5.07;;
16181;SDS011;8197;51.664;7.114;2024-01-15T04:58:18;20.67;;;4.07;;
16181;SDS011;8197;51.664;7.114;2024-01-15T05:03:21;20.60;;;3.93;;
16181;SDS011;8197;51.664;7.114;2024-01-15T05:08:24;26.37;;;4.90;;
16181;SDS011;8197;51.664;7.114;2024-01-15T05:13:29;18.53;;;4.57;;
16181;SDS011;8197;51.664;7.114;2024-01-15T05:18:31;19.80;;;4.00;;
16181;SDS011;8197;51.664;7.114;2024-01-15T05:23:34;24.03;;;5.10;;
16181;SDS011;8197;51.664;7.114;2024-01-15T05:28:39;18.70;;;4.87;;
16181;SDS011;8197;51.664;7.114;2024-01-15T05:33:43;26.53;;;5.53;;
16181;SDS011;8197;51.664;7.114;2024-01-15T05:38:46;23.07;;;4.83;;
16181;SDS011;8197;51.664;7.114;2024-01-15T05:43:51;21.67;;;4.50;;
16181;SDS011;8197;51.664;7.114;2024-01-15T05:48:53;20.60;;;4.97;;
16181;SDS011;8197;51.664;7.114;2024-01-15T05:53:56;23.20;;;6.17;;
16181;SDS011;8197;51.664;7.114;2024-01-15T05:59:01;19.30;;;4.00;;
16181;SDS011;8197;51.664;7.114;2024-01-15T06:04:04;19.43;;;4.57;;
16181;SDS011;8197;51.664;7.114;2024-01-15T06:09:08;20.07;;;4.77;;
16181;SDS011;8197;51.664;7.114;2024-01-15T06:14:12;22.30;;;4.40;;
16181;SDS011;8197;51.664;7.114;2024-01-15T06:19:15;20.80;;;4.00;;
16181;SDS011;8197;51.664;7.114;2024-01-15T06:24:18;22.87;;;4.03;;
16181;SDS011;8197;51.664;7.114;2024-01-15T06:29:24;20.20;;;4.47;;
16181;SDS011;8197;51.664;7.114;2024-01-15T06:34:28;20.13;;;4.20;;
16181;SDS011;8197;51.664;7.114;2024-01-15T06:39:31;19.80;;;4.17;;
16181;SDS011;8197;51.664;7.114;2024-01-15T06:44:35;22.40;;;4.43;;
16181;SDS011;8197;51.664;7.114;2024-01-15T06:49:38;19.50;;;3.97;;
16181;SDS011;8197;51.664;7.114;2024-01-15T06:54:41;16.80;;;3.47;;
16181;SDS011;8197;51.664;7.114;2024-01-15T06:59:45;17.33;;;4.23;;
16181;SDS011;8197;51.664;7.114;2024-01-15T07:04:48;19.23;;;3.73;;
16181;SDS011;8197;51.664;7.114;2024-01-15T07:09:51;20.80;;;3.80;;
16181;SDS011;8197;51.664;7.114;2024-01-15T07:14:57;22.57;;;4.27;;
16181;SDS011;8197;51.664;7.114;2024-01-15T07:20:00;20.97;;;3.83;;
16181;SDS011;8197;51.664;7.114;2024-01-15T07:25:04;21.17;;;4.13;;
16181;SDS011;8197;51.664;7.114;2024-01-15T07:30:10;14.37;;;2.90;;
16181;SDS011;8197;51.664;7.114;2024-01-15T07:35:14;15.73;;;2.90;;
16181;SDS011;8197;51.664;7.114;2024-01-15T07:40:18;22.23;;;3.50;;
16181;SDS011;8197;51.664;7.114;2024-01-15T07:45:22;20.23;;;2.93;;
16181;SDS011;8197;51.664;7.114;2024-01-15T07:50:25;16.43;;;2.13;;
16181;SDS011;8197;51.664;7.114;2024-01-15T07:55:28;16.37;;;2.50;;
16181;SDS011;8197;51.664;7.114;2024-01-15T08:24:54;14.80;;;2.77;;
16181;SDS011;8197;51.664;7.114;2024-01-15T08:29:57;14.30;;;2.00;;
16181;SDS011;8197;51.664;7.114;2024-01-15T08:35:00;15.47;;;2.60;;
16181;SDS011;8197;51.664;7.114;2024-01-15T08:40:07;14.90;;;1.97;;
16181;SDS011;8197;51.664;7.114;2024-01-15T08:45:10;12.53;;;1.83;;
16181;SDS011;8197;51.664;7.114;2024-01-15T08:50:14;16.93;;;1.97;;
16181;SDS011;8197;51.664;7.114;2024-01-15T08:55:18;13.37;;;2.03;;
16181;SDS011;8197;51.664;7.114;2024-01-15T09:00:21;16.70;;;1.87;;
16181;SDS011;8197;51.664;7.114;2024-01-15T09:05:24;14.20;;;2.40;;
16181;SDS011;8197;51.664;7.114;2024-01-15T09:10:30;14.00;;;2.27;;
16181;SDS011;8197;51.664;7.114;2024-01-15T09:15:33;14.30;;;1.87;;
16181;SDS011;8197;51.664;7.114;2024-01-15T09:20:36;19.90;;;2.37;;
16181;SDS011;8197;51.664;7.114;2024-01-15T09:25:41;13.53;;;2.07;;
16181;SDS011;8197;51.664;7.114;2024-01-15T09:30:44;12.60;;;1.93;;
16181;SDS011;8197;51.664;7.114;2024-01-15T09:35:48;12.97;;;2.00;;
16181;SDS011;8197;51.664;7.114;2024-01-15T09:40:52;13.40;;;2.20;;
16181;SDS011;8197;51.664;7.114;2024-01-15T09:45:55;13.50;;;2.20;;
16181;SDS011;8197;51.664;7.114;2024-01-15T09:51:00;12.37;;;1.77;;
16181;SDS011;8197;51.664;7.114;2024-01-15T09:56:05;12.60;;;2.03;;
16181;SDS011;8197;51.664;7.114;2024-01-15T10:01:08;14.10;;;2.30;;
16181;SDS011;8197;51.664;7.114;2024-01-15T10:06:12;13.43;;;2.53;;
16181;SDS011;8197;51.664;7.114;2024-01-15T10:11:24;13.10;;;2.20;;
16181;SDS011;8197;51.664;7.114;2024-01-15T10:16:27;13.70;;;2.60;;
16181;SDS011;8197;51.664;7.114;2024-01-15T10:21:31;13.30;;;2.23;;
16181;SDS011;8197;51.664;7.114;2024-01-15T10:26:37;14.33;;;2.70;;
16181;SDS011;8197;51.664;7.114;2024-01-15T10:31:40;16.20;;;3.47;;
16181;SDS011;8197;51.664;7.114;2024-01-15T10:36:45;14.10;;;3.00;;
16181;SDS011;8197;51.664;7.114;2024-01-15T10:41:55;14.60;;;2.50;;
16181;SDS011;8197;51.664;7.114;2024-01-15T10:46:58;15.77;;;3.20;;
16181;SDS011;8197;51.664;7.114;2024-01-15T10:52:01;14.90;;;3.17;;
16181;SDS011;8197;51.664;7.114;2024-01-15T10:57:06;17.70;;;3.77;;
16181;SDS011;8197;51.664;7.114;2024-01-15T11:02:09;15.60;;;3.23;;
16181;SDS011;8197;51.664;7.114;2024-01-15T11:07:13;15.10;;;2.97;;
16181;SDS011;8197;51.664;7.114;2024-01-15T11:12:18;14.37;;;2.97;;
16181;SDS011;8197;51.664;7.114;2024-01-15T11:17:21;16.63;;;3.70;;
16181;SDS011;8197;51.664;7.114;2024-01-15T11:27:52;14.90;;;3.00;;
16181;SDS011;8197;51.664;7.114;2024-01-15T11:32:56;13.77;;;2.63;;
16181;SDS011;8197;51.664;7.114;2024-01-15T11:37:59;16.50;;;2.70;;
16181;SDS011;8197;51.664;7.114;2024-01-15T11:43:04;15.50;;;2.30;;
16181;SDS011;8197;51.664;7.114;2024-01-15T11:48:12;15.50;;;2.40;;
16181;SDS011;8197;51.664;7.114;2024-01-15T11:53:18;14.30;;;1.63;;
16181;SDS011;8197;51.664;7.114;2024-01-15T11:58:37;13.37;;;1.80;;
16181;SDS011;8197;51.664;7.114;2024-01-15T12:03:40;12.90;;;1.63;;
16181;SDS011;8197;51.664;7.114;2024-01-15T12:08:43;14.03;;;2.00;;
16181;SDS011;8197;51.664;7.114;2024-01-15T12:13:48;15.00;;;1.67;;
16181;SDS011;8197;51.664;7.114;2024-01-15T12:18:51;12.70;;;1.90;;
16181;SDS011;8197;51.664;7.114;2024-01-15T12:23:55;13.20;;;1.80;;
16181;SDS011;8197;51.664;7.114;2024-01-15T12:29:02;14.93;;;2.10;;
16181;SDS011;8197;51.664;7.114;2024-01-15T12:34:04;15.87;;;2.40;;
16181;SDS011;8197;51.664;7.114;2024-01-15T12:39:11;14.00;;;2.00;;
16181;SDS011;8197;51.664;7.114;2024-01-15T12:44:15;14.70;;;2.03;;
16181;SDS011;8197;51.664;7.114;2024-01-15T12:49:18;14.03;;;2.00;;
16181;SDS011;8197;51.664;7.114;2024-01-15T12:54:22;18.30;;;2.20;;
16181;SDS011;8197;51.664;7.114;2024-01-15T12:59:27;14.97;;;1.77;;
16181;SDS011;8197;51.664;7.114;2024-01-15T13:04:31;16.10;;;1.97;;
16181;SDS011;8197;51.664;7.114;2024-01-15T13:09:34;15.63;;;1.33;;
16181;SDS011;8197;51.664;7.114;2024-01-15T13:14:39;13.87;;;1.40;;
16181;SDS011;8197;51.664;7.114;2024-01-15T13:19:42;16.07;;;1.83;;
16181;SDS011;8197;51.664;7.114;2024-01-15T13:24:45;16.27;;;1.50;;
16181;SDS011;8197;51.664;7.114;2024-01-15T13:29:50;12.40;;;1.03;;
16181;SDS011;8197;51.664;7.114;2024-01-15T13:34:53;21.53;;;1.80;;
16181;SDS011;8197;51.664;7.114;2024-01-15T13:39:57;13.97;;;1.40;;
16181;SDS011;8197;51.664;7.114;2024-01-15T13:45:02;14.67;;;1.53;;
16181;SDS011;8197;51.664;7.114;2024-01-15T13:50:07;14.00;;;1.57;;
16181;SDS011;8197;51.664;7.114;2024-01-15T13:55:10;15.80;;;1.63;;
16181;SDS011;8197;51.664;7.114;2024-01-15T14:00:15;19.50;;;1.30;;
16181;SDS011;8197;51.664;7.114;2024-01-15T14:05:21;16.10;;;1.50;;
16181;SDS011;8197;51.664;7.114;2024-01-15T14:10:24;13.80;;;1.37;;
16181;SDS011;8197;51.664;7.114;2024-01-15T14:15:28;17.00;;;2.00;;
16181;SDS011;8197;51.664;7.114;2024-01-15T14:20:31;13.67;;;1.30;;
16181;SDS011;8197;51.664;7.114;2024-01-15T14:25:34;15.07;;;1.40;;
16181;SDS011;8197;51.664;7.114;2024-01-15T14:30:38;14.37;;;1.17;;
16181;SDS011;8197;51.664;7.114;2024-01-15T14:35:41;15.00;;;1.40;;
16181;SDS011;8197;51.664;7.114;2024-01-15T14:40:44;14.73;;;1.50;;
16181;SDS011;8197;51.664;7.114;2024-01-15T14:45:48;14.37;;;1.40;;
16181;SDS011;8197;51.664;7.114;2024-01-15T14:50:51;15.00;;;1.40;;
16181;SDS011;8197;51.664;7.114;2024-01-15T14:55:54;16.80;;;2.27;;
16181;SDS011;8197;51.664;7.114;2024-01-15T15:00:58;14.20;;;1.77;;
16181;SDS011;8197;51.664;7.114;2024-01-15T15:06:01;12.93;;;1.23;;
16181;SDS011;8197;51.664;7.114;2024-01-15T15:11:06;15.47;;;1.70;;
16181;SDS011;8197;51.664;7.114;2024-01-15T15:16:10;13.73;;;1.30;;
16181;SDS011;8197;51.664;7.114;2024-01-15T15:21:15;17.53;;;1.30;;
16181;SDS011;8197;51.664;7.114;2024-01-15T15:26:18;15.60;;;1.47;;
16181;SDS011;8197;51.664;7.114;2024-01-15T15:31:22;18.57;;;1.70;;
16181;SDS011;8197;51.664;7.114;2024-01-15T15:36:25;14.13;;;1.60;;
16181;SDS011;8197;51.664;7.114;2024-01-15T15:41:28;16.13;;;2.10;;
16181;SDS011;8197;51.664;7.114;2024-01-15T15:46:32;17.60;;;1.80;;
16181;SDS011;8197;51.664;7.114;2024-01-15T15:51:35;17.30;;;1.80;;
16181;SDS011;8197;51.664;7.114;2024-01-15T15:56:38;15.57;;;1.60;;
16181;SDS011;8197;51.664;7.114;2024-01-15T16:01:44;20.50;;;1.73;;
16181;SDS011;8197;51.664;7.114;2024-01-15T16:06:48;17.20;;;1.43;;
16181;SDS011;8197;51.664;7.114;2024-01-15T16:11:51;15.10;;;1.80;;
16181;SDS011;8197;51.664;7.114;2024-01-15T16:16:55;19.47;;;2.37;;
16181;SDS011;8197;51.664;7.114;2024-01-15T16:22:18;15.40;;;1.73;;
16181;SDS011;8197;51.664;7.114;2024-01-15T16:27:41;14.20;;;1.77;;
16181;SDS011;8197;51.664;7.114;2024-01-15T16:32:46;16.47;;;2.03;;
16181;SDS011;8197;51.664;7.114;2024-01-15T16:37:50;19.37;;;2.03;;
16181;SDS011;8197;51.664;7.114;2024-01-15T16:42:52;17.10;;;2.23;;
16181;SDS011;8197;51.664;7.114;2024-01-15T16:47:57;20.20;;;2.97;;
16181;SDS011;8197;51.664;7.114;2024-01-15T16:53:00;17.90;;;1.73;;
16181;SDS011;8197;51.664;7.114;2024-01-15T16:58:03;13.60;;;1.80;;
16181;SDS011;8197;51.664;7.114;2024-01-15T17:03:07;22.97;;;2.50;;
16181;SDS011;8197;51.664;7.114;2024-01-15T17:08:10;13.93;;;1.90;;
16181;SDS011;8197;51.664;7.114;2024-01-15T17:13:13;18.00;;;1.97;;
16181;SDS011;8197;51.664;7.114;2024-01-15T17:18:17;18.40;;;2.30;;
16181;SDS011;8197;51.664;7.114;2024-01-15T17:23:20;21.00;;;2.43;;
16181;SDS011;8197;51.664;7.114;2024-01-15T17:28:23;18.10;;;2.33;;
16181;SDS011;8197;51.664;7.114;2024-01-15T17:33:28;17.00;;;3.00;;
16181;SDS011;8197;51.664;7.114;2024-01-15T17:38:31;15.93;;;2.40;;
16181;SDS011;8197;51.664;7.114;2024-01-15T17:43:35;19.73;;;2.80;;
16181;SDS011;8197;51.664;7.114;2024-01-15T17:48:39;16.17;;;3.20;;
16181;SDS011;8197;51.664;7.114;2024-01-15T17:53:42;21.20;;;3.43;;
16181;SDS011;8197;51.664;7.114;2024-01-15T17:58:45;23.27;;;3.30;;
16181;SDS011;8197;51.664;7.114;2024-01-15T18:03:49;17.47;;;2.53;;
16181;SDS011;8197;51.664;7.114;2024-01-15T18:08:53;26.57;;;2.30;;
16181;SDS011;8197;51.664;7.114;2024-01-15T18:13:56;16.73;;;2.40;;
16181;SDS011;8197;51.664;7.114;2024-01-15T18:19:00;21.20;;;2.73;;
16181;SDS011;8197;51.664;7.114;2024-01-15T18:24:03;23.23;;;2.80;;
16181;SDS011;8197;51.664;7.114;2024-01-15T18:29:06;17.30;;;2.50;;
16181;SDS011;8197;51.664;7.114;2024-01-15T18:34:12;15.53;;;2.50;;
16181;SDS011;8197;51.664;7.114;2024-01-15T18:39:16;16.83;;;2.80;;
16181;SDS011;8197;51.664;7.114;2024-01-15T18:44:19;18.27;;;2.80;;
16181;SDS011;8197;51.664;7.114;2024-01-15T18:49:24;15.97;;;3.07;;
16181;SDS011;8197;51.664;7.114;2024-01-15T18:54:27;20.23;;;3.53;;
16181;SDS011;8197;51.664;7.114;2024-01-15T18:59:30;16.13;;;2.90;;
16181;SDS011;8197;51.664;7.114;2024-01-15T19:04:36;25.63;;;4.30;;
16181;SDS011;8197;51.664;7.114;2024-01-15T19:09:39;21.10;;;2.80;;
16181;SDS011;8197;51.664;7.114;2024-01-15T19:14:42;18.90;;;2.90;;
16181;SDS011;8197;51.664;7.114;2024-01-15T19:19:47;20.23;;;2.97;;
16181;SDS011;8197;51.664;7.114;2024-01-15T19:24:52;20.73;;;3.30;;
16181;SDS011;8197;51.664;7.114;2024-01-15T19:29:55;17.70;;;2.70;;
16181;SDS011;8197;51.664;7.114;2024-01-15T19:34:59;18.87;;;2.70;;
16181;SDS011;8197;51.664;7.114;2024-01-15T19:40:02;17.83;;;2.50;;
16181;SDS011;8197;51.664;7.114;2024-01-15T19:45:06;24.73;;;2.53;;
16181;SDS011;8197;51.664;7.114;2024-01-15T19:50:10;21.93;;;2.77;;
16181;SDS011;8197;51.664;7.114;2024-01-15T19:55:13;16.30;;;2.50;;
16181;SDS011;8197;51.664;7.114;2024-01-15T20:00:17;15.33;;;2.97;;
16181;SDS011;8197;51.664;7.114;2024-01-15T20:05:21;20.00;;;3.60;;
16181;SDS011;8197;51.664;7.114;2024-01-15T20:10:25;38.03;;;4.07;;
16181;SDS011;8197;51.664;7.114;2024-01-15T20:15:27;21.63;;;3.17;;
16181;SDS011;8197;51.664;7.114;2024-01-15T20:20:33;19.67;;;3.50;;
16181;SDS011;8197;51.664;7.114;2024-01-15T20:25:36;19.33;;;3.00;;
16181;SDS011;8197;51.664;7.114;2024-01-15T20:30:39;24.00;;;2.70;;
16181;SDS011;8197;51.664;7.114;2024-01-15T20:35:43;18.60;;;2.67;;
16181;SDS011;8197;51.664;7.114;2024-01-15T20:40:46;18.97;;;2.60;;
16181;SDS011;8197;51.664;7.114;2024-01-15T20:45:49;18.80;;;2.70;;
16181;SDS011;8197;51.664;7.114;2024-01-15T20:50:53;17.40;;;2.43;;
16181;SDS011;8197;51.664;7.114;2024-01-15T20:55:57;23.10;;;3.03;;
16181;SDS011;8197;51.664;7.114;2024-01-15T21:01:00;18.57;;;2.43;;
16181;SDS011;8197;51.664;7.114;2024-01-15T21:06:05;19.60;;;2.17;;
16181;SDS011;8197;51.664;7.114;2024-01-15T21:11:09;21.37;;;2.30;;
16181;SDS011;8197;51.664;7.114;2024-01-15T21:16:14;14.97;;;1.90;;
16181;SDS011;8197;51.664;7.114;2024-01-15T21:21:18;19.83;;;1.97;;
16181;SDS011;8197;51.664;7.114;2024-01-15T21:26:21;18.50;;;2.80;;
16181;SDS011;8197;51.664;7.114;2024-01-15T21:31:26;18.90;;;2.40;;
16181;SDS011;8197;51.664;7.114;2024-01-15T21:36:30;17.33;;;2.10;;
16181;SDS011;8197;51.664;7.114;2024-01-15T21:41:33;22.97;;;2.43;;
16181;SDS011;8197;51.664;7.114;2024-01-15T21:46:36;17.10;;;2.30;;
16181;SDS011;8197;51.664;7.114;2024-01-15T21:51:40;17.40;;;2.17;;
16181;SDS011;8197;51.664;7.114;2024-01-15T21:56:43;16.07;;;1.97;;
16181;SDS011;8197;51.664;7.114;2024-01-15T22:01:46;16.80;;;2.13;;
16181;SDS011;8197;51.664;7.114;2024-01-15T22:06:54;17.60;;;2.13;;
16181;SDS011;8197;51.664;7.114;2024-01-15T22:11:57;19.83;;;2.97;;
16181;SDS011;8197;51.664;7.114;2024-01-15T22:17:00;24.80;;;3.27;;
16181;SDS011;8197;51.664;7.114;2024-01-15T22:22:04;16.80;;;3.20;;
16181;SDS011;8197;51.664;7.114;2024-01-15T22:27:07;16.97;;;2.77;;
16181;SDS011;8197;51.664;7.114;2024-01-15T22:32:10;17.77;;;3.30;;
16181;SDS011;8197;51.664;7.114;2024-01-15T22:37:14;20.43;;;3.40;;
16181;SDS011;8197;51.664;7.114;2024-01-15T22:42:17;18.60;;;2.50;;
16181;SDS011;8197;51.664;7.114;2024-01-15T22:47:20;19.10;;;2.80;;
16181;SDS011;8197;51.664;7.114;2024-01-15T22:52:25;20.20;;;3.47;;
16181;SDS011;8197;51.664;7.114;2024-01-15T22:57:28;19.40;;;3.07;;
16181;SDS011;8197;51.664;7.114;2024-01-15T23:02:31;22.63;;;4.27;;
16181;SDS011;8197;51.664;7.114;2024-01-15T23:07:36;17.93;;;2.97;;
16181;SDS011;8197;51.664;7.114;2024-01-15T23:12:39;16.80;;;3.23;;
16181;SDS011;8197;51.664;7.114;2024-01-15T23:17:41;23.07;;;3.60;;
16181;SDS011;8197;51.664;7.114;2024-01-15T23:22:47;19.47;;;3.40;;
16181;SDS011;8197;51.664;7.114;2024-01-15T23:27:50;16.60;;;3.50;;
16181;SDS011;8197;51.664;7.114;2024-01-15T23:32:53;25.20;;;3.90;;
16181;SDS011;8197;51.664;7.114;2024-01-15T23:37:58;18.37;;;3.70;;
16181;SDS011;8197;51.664;7.114;2024-01-15T23:43:00;18.33;;;3.90;;
16181;SDS011;8197;51.664;7.114;2024-01-15T23:48:04;23.23;;;5.47;;
16181;SDS011;8197;51.664;7.114;2024-01-15T23:53:09;19.70;;;4.67;;
16181;SDS011;8197;51.664;7.114;2024-01-15T23:58:12;20.60;;;4.90;;
